createdAt,value
2019-03-04T00:00:06.844Z,53.08
2019-03-04T00:01:11.596Z,45.19
2019-03-04T00:02:10.130Z,46.76
2019-03-04T00:03:08.097Z,45.57
2019-03-04T00:04:08.384Z,44.87
2019-03-04T00:05:06.904Z,51.17
2019-03-04T00:06:06.984Z,45.42
2019-03-04T00:07:08.623Z,42.86
2019-03-04T00:08:06.824Z,46.49
2019-03-04T00:09:06.933Z,48.90
2019-03-04T00:10:07.596Z,50.01
2019-03-04T00:11:10.667Z,48.33
2019-03-04T00:12:08.730Z,47.71
2019-03-04T00:13:06.696Z,45.16
2019-03-04T00:14:06.801Z,46.87
2019-03-04T00:15:06.714Z,42.52
2019-03-04T00:16:06.766Z,46.01
2019-03-04T00:17:06.821Z,46.79
2019-03-04T00:18:07.314Z,47.49
2019-03-04T00:19:06.643Z,44.45
2019-03-04T00:20:07.783Z,43.22
2019-03-04T00:21:06.745Z,50.36
2019-03-04T00:22:09.211Z,47.15
2019-03-04T00:23:07.601Z,43.13
2019-03-04T00:24:06.640Z,41.68
2019-03-04T00:25:06.688Z,41.61
2019-03-04T00:26:06.626Z,42.16
2019-03-04T00:27:06.760Z,44.29
2019-03-04T00:28:06.629Z,42.97
2019-03-04T00:29:06.625Z,42.41
2019-03-04T00:30:06.595Z,42.45
2019-03-04T00:31:06.560Z,41.01
2019-03-04T00:32:06.746Z,42.92
2019-03-04T00:33:06.626Z,41.67
2019-03-04T00:34:06.559Z,41.23
2019-03-04T00:35:06.577Z,40.74
2019-03-04T00:36:06.532Z,42.14
2019-03-04T00:37:06.548Z,40.59
2019-03-04T00:38:06.682Z,41.31
2019-03-04T00:39:06.594Z,40.33
2019-03-04T00:40:07.313Z,40.06
2019-03-04T00:41:07.495Z,40.94
2019-03-04T00:42:06.488Z,42.25
2019-03-04T00:43:06.471Z,41.95
2019-03-04T00:44:06.487Z,41.74
2019-03-04T00:45:06.509Z,40.89
2019-03-04T00:46:06.549Z,40.04
2019-03-04T00:47:06.456Z,43.97
2019-03-04T00:48:06.532Z,46.29
2019-03-04T00:49:06.471Z,41.73
2019-03-04T00:50:07.496Z,43.69
2019-03-04T00:51:07.305Z,42.11
2019-03-04T00:52:10.125Z,42.13
2019-03-04T00:53:06.503Z,44.43
2019-03-04T00:54:06.434Z,42.74
2019-03-04T00:55:06.411Z,42.45
2019-03-04T00:56:06.428Z,44.76
2019-03-04T00:57:06.390Z,50.71
2019-03-04T00:58:08.105Z,48.53
2019-03-04T00:59:06.583Z,43.55
2019-03-04T01:00:06.471Z,42.80
2019-03-04T01:01:06.459Z,44.18
2019-03-04T01:02:06.567Z,44.56
2019-03-04T01:03:06.380Z,42.19
2019-03-04T01:04:06.470Z,42.64
2019-03-04T01:05:06.335Z,42.26
2019-03-04T01:06:06.394Z,45.00
2019-03-04T01:07:06.354Z,42.57
2019-03-04T01:08:06.325Z,43.21
2019-03-04T01:09:06.367Z,44.81
2019-03-04T01:10:06.313Z,45.95
2019-03-04T01:11:06.331Z,44.95
2019-03-04T01:12:06.356Z,42.80
2019-03-04T01:13:06.332Z,42.02
2019-03-04T01:14:06.331Z,43.39
2019-03-04T01:15:06.330Z,42.93
2019-03-04T01:16:06.347Z,44.62
2019-03-04T01:17:06.287Z,51.07
2019-03-04T01:18:06.457Z,46.00
2019-03-04T01:19:06.302Z,43.09
2019-03-04T01:20:06.292Z,43.62
2019-03-04T01:21:06.248Z,51.84
2019-03-04T01:22:06.232Z,49.02
2019-03-04T01:23:06.253Z,44.55
2019-03-04T01:24:06.395Z,42.94
2019-03-04T01:25:07.735Z,46.21
2019-03-04T01:26:06.235Z,44.10
2019-03-04T01:27:07.192Z,44.86
2019-03-04T01:28:07.296Z,42.83
2019-03-04T01:29:06.217Z,43.02
2019-03-04T01:30:06.263Z,44.21
2019-03-04T01:31:06.178Z,42.57
2019-03-04T01:32:06.207Z,41.96
2019-03-04T01:33:06.179Z,42.20
2019-03-04T01:34:06.179Z,41.56
2019-03-04T01:35:06.240Z,42.23
2019-03-04T01:36:06.342Z,41.75
2019-03-04T01:37:06.180Z,41.43
2019-03-04T01:38:06.139Z,41.44
2019-03-04T01:39:06.123Z,43.50
2019-03-04T01:40:06.127Z,43.36
2019-03-04T01:41:06.135Z,43.03
2019-03-04T01:42:06.238Z,44.68
2019-03-04T01:43:06.210Z,42.62
2019-03-04T01:44:06.182Z,41.91
2019-03-04T01:45:06.192Z,42.19
2019-03-04T01:46:07.305Z,43.40
2019-03-04T01:47:06.142Z,47.50
2019-03-04T01:48:06.076Z,44.07
2019-03-04T01:49:07.680Z,45.31
2019-03-04T01:50:06.090Z,43.38
2019-03-04T01:51:06.101Z,44.08
2019-03-04T01:52:06.073Z,49.18
2019-03-04T01:53:06.100Z,46.60
2019-03-04T01:54:06.132Z,43.59
2019-03-04T01:55:06.314Z,44.71
2019-03-04T01:56:06.174Z,44.57
2019-03-04T01:57:06.082Z,45.94
2019-03-04T01:58:06.668Z,43.99
2019-03-04T01:59:06.040Z,43.00
2019-03-04T02:00:06.072Z,44.42
2019-03-04T02:01:06.033Z,44.75
2019-03-04T02:02:06.742Z,47.77
2019-03-04T02:03:06.020Z,45.20
2019-03-04T02:04:05.992Z,46.46
2019-03-04T02:05:06.100Z,51.63
2019-03-04T02:06:06.613Z,48.85
2019-03-04T02:07:06.123Z,45.99
2019-03-04T02:08:05.979Z,46.24
2019-03-04T02:09:05.959Z,46.92
2019-03-04T02:10:06.764Z,50.11
2019-03-04T02:11:05.970Z,49.46
2019-03-04T02:12:05.923Z,46.47
2019-03-04T02:13:06.788Z,43.74
2019-03-04T02:14:05.990Z,45.15
2019-03-04T02:15:06.017Z,47.88
2019-03-04T02:16:05.911Z,47.64
2019-03-04T02:17:05.984Z,49.28
2019-03-04T02:18:05.951Z,44.17
2019-03-04T02:19:06.614Z,46.34
2019-03-04T02:20:05.982Z,44.92
2019-03-04T02:21:05.981Z,47.69
2019-03-04T02:22:07.276Z,54.71
2019-03-04T02:23:06.069Z,51.07
2019-03-04T02:24:05.941Z,46.33
2019-03-04T02:25:05.885Z,43.69
2019-03-04T02:26:05.949Z,44.10
2019-03-04T02:27:06.099Z,44.98
2019-03-04T02:28:05.916Z,44.30
2019-03-04T02:29:05.958Z,45.65
2019-03-04T02:30:05.901Z,45.14
2019-03-04T02:31:07.126Z,50.42
2019-03-04T02:32:07.016Z,54.07
2019-03-04T02:33:07.949Z,47.82
2019-03-04T02:34:05.995Z,46.57
2019-03-04T02:35:05.825Z,49.39
2019-03-04T02:36:05.882Z,48.68
2019-03-04T02:37:05.826Z,46.97
2019-03-04T02:38:07.643Z,49.85
2019-03-04T02:39:07.419Z,53.64
2019-03-04T02:40:05.827Z,51.46
2019-03-04T02:41:05.831Z,45.45
2019-03-04T02:42:06.814Z,45.96
2019-03-04T02:43:05.748Z,46.70
2019-03-04T02:44:05.799Z,47.90
2019-03-04T02:45:05.764Z,47.18
2019-03-04T02:46:05.749Z,44.91
2019-03-04T02:47:05.714Z,45.74
2019-03-04T02:48:05.762Z,45.23
2019-03-04T02:49:06.907Z,45.45
2019-03-04T02:50:05.779Z,45.78
2019-03-04T02:51:05.706Z,46.22
2019-03-04T02:52:07.619Z,45.43
2019-03-04T02:53:05.758Z,45.48
2019-03-04T02:54:05.810Z,45.28
2019-03-04T02:55:05.712Z,44.26
2019-03-04T02:56:05.691Z,44.69
2019-03-04T02:57:05.653Z,46.84
2019-03-04T02:58:05.666Z,45.10
2019-03-04T02:59:07.136Z,44.91
2019-03-04T03:00:06.551Z,46.21
2019-03-04T03:01:07.162Z,46.51
2019-03-04T03:02:06.546Z,46.26
2019-03-04T03:03:05.675Z,46.72
2019-03-04T03:04:06.276Z,44.58
2019-03-04T03:05:05.656Z,45.62
2019-03-04T03:06:05.739Z,47.63
2019-03-04T03:07:05.613Z,49.91
2019-03-04T03:08:06.834Z,47.81
2019-03-04T03:09:05.741Z,48.48
2019-03-04T03:10:10.126Z,45.08
2019-03-04T03:11:06.853Z,45.86
2019-03-04T03:12:05.822Z,46.17
2019-03-04T03:13:05.755Z,47.45
2019-03-04T03:14:05.596Z,47.77
2019-03-04T03:15:06.166Z,48.26
2019-03-04T03:16:05.559Z,48.27
2019-03-04T03:17:05.547Z,50.04
2019-03-04T03:18:06.450Z,52.17
2019-03-04T03:19:05.779Z,48.32
2019-03-04T03:20:05.555Z,47.87
2019-03-04T03:21:06.123Z,49.05
2019-03-04T03:22:05.634Z,52.62
2019-03-04T03:23:05.589Z,47.64
2019-03-04T03:24:05.852Z,53.45
2019-03-04T03:25:05.447Z,55.18
2019-03-04T03:26:06.287Z,52.73
2019-03-04T03:27:06.518Z,55.08
2019-03-04T03:28:05.462Z,49.54
2019-03-04T03:29:05.438Z,55.70
2019-03-04T03:30:06.281Z,57.48
2019-03-04T03:31:06.633Z,54.56
2019-03-04T03:32:05.548Z,49.69
2019-03-04T03:33:09.035Z,50.07
2019-03-04T03:34:08.639Z,48.20
2019-03-04T03:35:08.045Z,48.84
2019-03-04T03:36:09.131Z,48.92
2019-03-04T03:37:05.394Z,56.52
2019-03-04T03:38:06.311Z,48.66
2019-03-04T03:39:06.625Z,52.42
2019-03-04T03:40:06.478Z,49.89
2019-03-04T03:41:05.484Z,55.22
2019-03-04T03:42:05.349Z,51.37
2019-03-04T03:43:06.387Z,48.08
2019-03-04T03:44:06.347Z,48.05
2019-03-04T03:45:05.330Z,47.22
2019-03-04T03:46:05.469Z,48.02
2019-03-04T03:47:07.179Z,48.05
2019-03-04T03:48:05.469Z,52.47
2019-03-04T03:49:05.423Z,50.41
2019-03-04T03:50:06.439Z,56.37
2019-03-04T03:51:05.273Z,48.49
2019-03-04T03:52:05.253Z,50.11
2019-03-04T03:53:05.315Z,48.60
2019-03-04T03:54:06.270Z,53.53
2019-03-04T03:55:06.130Z,49.29
2019-03-04T03:56:06.217Z,50.76
2019-03-04T03:57:06.647Z,54.13
2019-03-04T03:58:05.389Z,50.73
2019-03-04T03:59:05.275Z,49.11
2019-03-04T04:00:05.300Z,49.89
2019-03-04T04:01:06.627Z,50.47
2019-03-04T04:02:06.198Z,49.97
2019-03-04T04:03:05.556Z,52.08
2019-03-04T04:04:05.219Z,47.01
2019-03-04T04:05:05.182Z,48.53
2019-03-04T04:06:05.212Z,52.89
2019-03-04T04:07:05.172Z,47.83
2019-03-04T04:08:05.155Z,49.18
2019-03-04T04:09:05.151Z,55.11
2019-03-04T04:10:05.168Z,49.79
2019-03-04T04:11:05.154Z,47.70
2019-03-04T04:12:05.164Z,46.94
2019-03-04T04:13:07.308Z,50.63
2019-03-04T04:14:05.276Z,47.37
2019-03-04T04:15:05.347Z,48.65
2019-03-04T04:16:06.229Z,47.92
2019-03-04T04:17:07.261Z,47.75
2019-03-04T04:18:05.250Z,45.99
2019-03-04T04:19:05.472Z,46.82
2019-03-04T04:20:07.636Z,48.54
2019-03-04T04:21:05.158Z,46.08
2019-03-04T04:22:07.137Z,45.72
2019-03-04T04:23:06.136Z,44.48
2019-03-04T04:24:07.243Z,45.43
2019-03-04T04:25:05.243Z,48.83
2019-03-04T04:26:06.703Z,45.77
2019-03-04T04:27:05.785Z,45.93
2019-03-04T04:28:07.320Z,48.60
2019-03-04T04:29:05.138Z,51.89
2019-03-04T04:30:05.197Z,47.23
2019-03-04T04:31:05.106Z,48.76
2019-03-04T04:32:05.638Z,46.07
2019-03-04T04:33:05.641Z,46.04
2019-03-04T04:34:05.210Z,46.08
2019-03-04T04:35:04.984Z,49.16
2019-03-04T04:36:05.021Z,46.64
2019-03-04T04:37:05.062Z,46.06
2019-03-04T04:38:05.023Z,45.21
2019-03-04T04:39:05.064Z,45.90
2019-03-04T04:40:04.959Z,46.33
2019-03-04T04:41:04.945Z,47.11
2019-03-04T04:42:04.941Z,47.80
2019-03-04T04:43:04.959Z,46.51
2019-03-04T04:44:05.070Z,47.44
2019-03-04T04:45:05.018Z,49.22
2019-03-04T04:46:04.882Z,51.94
2019-03-04T04:47:04.882Z,49.90
2019-03-04T04:48:04.881Z,49.52
2019-03-04T04:49:05.853Z,49.34
2019-03-04T04:50:04.944Z,54.20
2019-03-04T04:51:04.989Z,53.00
2019-03-04T04:52:04.937Z,56.02
2019-03-04T04:53:07.138Z,51.65
2019-03-04T04:54:04.922Z,49.87
2019-03-04T04:55:04.939Z,52.61
2019-03-04T04:56:06.570Z,51.73
2019-03-04T04:57:07.281Z,49.17
2019-03-04T04:58:48.687Z,51.82
2019-03-04T04:59:05.031Z,50.13
2019-03-04T05:00:06.234Z,47.40
2019-03-04T05:01:05.810Z,49.32
2019-03-04T05:02:04.809Z,54.20
2019-03-04T05:03:04.815Z,49.09
2019-03-04T05:04:04.818Z,49.17
2019-03-04T05:05:04.816Z,52.16
2019-03-04T05:06:04.867Z,47.55
2019-03-04T05:07:04.790Z,52.55
2019-03-04T05:08:04.796Z,49.60
2019-03-04T05:09:04.790Z,50.59
2019-03-04T05:10:04.766Z,52.52
2019-03-04T05:11:04.759Z,50.42
2019-03-04T05:12:04.756Z,48.47
2019-03-04T05:13:04.747Z,49.64
2019-03-04T05:14:04.760Z,51.69
2019-03-04T05:15:04.783Z,49.42
2019-03-04T05:16:04.748Z,52.78
2019-03-04T05:17:04.710Z,55.08
2019-03-04T05:18:04.721Z,53.30
2019-03-04T05:19:04.721Z,49.93
2019-03-04T05:20:04.703Z,50.03
2019-03-04T05:21:04.747Z,52.30
2019-03-04T05:22:05.662Z,51.05
2019-03-04T05:23:04.665Z,51.44
2019-03-04T05:24:04.674Z,48.00
2019-03-04T05:25:04.706Z,50.54
2019-03-04T05:26:04.706Z,53.45
2019-03-04T05:27:04.664Z,49.61
2019-03-04T05:28:04.658Z,48.45
2019-03-04T05:29:04.610Z,49.12
2019-03-04T05:30:04.642Z,50.84
2019-03-04T05:31:04.626Z,48.62
2019-03-04T05:32:04.603Z,49.30
2019-03-04T05:33:04.635Z,49.85
2019-03-04T05:34:04.611Z,52.49
2019-03-04T05:35:04.606Z,53.03
2019-03-04T05:36:04.594Z,50.52
2019-03-04T05:37:04.583Z,52.28
2019-03-04T05:38:04.608Z,51.83
2019-03-04T05:39:04.570Z,54.76
2019-03-04T05:40:04.580Z,54.31
2019-03-04T05:41:04.556Z,52.63
2019-03-04T05:42:04.552Z,50.77
2019-03-04T05:43:04.575Z,52.40
2019-03-04T05:44:04.582Z,47.89
2019-03-04T05:45:04.563Z,47.83
2019-03-04T05:46:04.545Z,48.60
2019-03-04T05:47:04.521Z,47.34
2019-03-04T05:48:04.507Z,46.85
2019-03-04T05:49:04.513Z,46.71
2019-03-04T05:50:04.508Z,47.13
2019-03-04T05:51:04.484Z,51.12
2019-03-04T05:52:04.465Z,48.49
2019-03-04T05:53:04.464Z,47.73
2019-03-04T05:54:04.461Z,48.40
2019-03-04T05:55:04.464Z,46.99
2019-03-04T05:56:04.432Z,50.00
2019-03-04T05:57:04.435Z,50.53
2019-03-04T05:58:04.423Z,48.93
2019-03-04T05:59:04.469Z,51.33
2019-03-04T06:00:04.427Z,47.70
2019-03-04T06:01:04.409Z,48.79
2019-03-04T06:02:04.392Z,48.21
2019-03-04T06:03:04.398Z,49.04
2019-03-04T06:04:04.371Z,52.27
2019-03-04T06:05:04.372Z,46.54
2019-03-04T06:06:05.371Z,45.90
2019-03-04T06:07:04.365Z,47.85
2019-03-04T06:08:04.349Z,47.18
2019-03-04T06:09:04.352Z,46.29
2019-03-04T06:10:04.345Z,48.08
2019-03-04T06:11:04.332Z,47.86
2019-03-04T06:12:04.327Z,47.15
2019-03-04T06:13:04.336Z,49.13
2019-03-04T06:14:04.318Z,48.37
2019-03-04T06:15:04.317Z,49.67
2019-03-04T06:16:04.316Z,47.80
2019-03-04T06:17:04.305Z,47.77
2019-03-04T06:18:04.288Z,51.26
2019-03-04T06:19:04.296Z,47.97
2019-03-04T06:20:04.279Z,48.19
2019-03-04T06:21:04.291Z,48.60
2019-03-04T06:22:04.289Z,48.79
2019-03-04T06:23:04.243Z,48.31
2019-03-04T06:24:04.242Z,47.30
2019-03-04T06:25:07.346Z,47.15
2019-03-04T06:26:04.234Z,47.11
2019-03-04T06:27:04.371Z,47.83
2019-03-04T06:28:04.274Z,47.31
2019-03-04T06:29:04.322Z,48.52
2019-03-04T06:30:04.286Z,50.01
2019-03-04T06:31:04.333Z,48.33
2019-03-04T06:32:04.274Z,48.38
2019-03-04T06:33:04.234Z,48.17
2019-03-04T06:34:04.331Z,49.64
2019-03-04T06:35:04.344Z,48.96
2019-03-04T06:36:04.306Z,49.22
2019-03-04T06:37:04.253Z,46.54
2019-03-04T06:38:04.279Z,47.41
2019-03-04T06:39:04.307Z,47.72
2019-03-04T06:40:04.283Z,50.63
2019-03-04T06:41:04.321Z,49.15
2019-03-04T06:42:04.280Z,49.30
2019-03-04T06:43:04.262Z,47.09
2019-03-04T06:44:04.233Z,47.86
2019-03-04T06:45:04.251Z,46.62
2019-03-04T06:46:04.240Z,49.46
2019-03-04T06:47:04.224Z,46.76
2019-03-04T06:48:04.705Z,46.54
2019-03-04T06:49:04.232Z,52.52
2019-03-04T06:50:04.220Z,47.76
2019-03-04T06:51:04.222Z,47.19
2019-03-04T06:52:04.213Z,47.36
2019-03-04T06:53:04.177Z,47.79
2019-03-04T06:54:04.222Z,46.90
2019-03-04T06:55:04.140Z,48.24
2019-03-04T06:56:04.182Z,48.64
2019-03-04T06:57:04.160Z,50.57
2019-03-04T06:58:04.159Z,47.77
2019-03-04T07:04:38.205Z,51.45
2019-03-04T07:04:56.100Z,49.92
2019-03-04T07:05:56.114Z,51.07
2019-03-04T07:06:56.944Z,49.86
2019-03-04T07:07:56.120Z,49.10
2019-03-04T07:09:00.270Z,57.32
2019-03-04T07:09:56.088Z,52.02
2019-03-04T07:10:56.589Z,52.33
2019-03-04T07:11:56.081Z,48.95
2019-03-04T07:12:56.605Z,50.40
2019-03-04T07:13:56.089Z,50.70
2019-03-04T07:14:56.047Z,54.39
2019-03-04T07:15:56.104Z,50.94
2019-03-04T07:16:56.043Z,53.41
2019-03-04T07:17:56.053Z,56.18
2019-03-04T07:18:56.006Z,49.09
2019-03-04T07:19:56.157Z,50.65
2019-03-04T07:20:56.056Z,52.89
2019-03-04T07:21:56.009Z,51.40
2019-03-04T07:22:56.010Z,57.83
2019-03-04T07:23:56.587Z,53.35
2019-03-04T07:24:55.998Z,52.89
2019-03-04T07:25:56.604Z,51.89
2019-03-04T07:26:56.598Z,53.42
2019-03-04T07:27:56.409Z,53.79
2019-03-04T07:28:55.964Z,51.31
2019-03-04T07:29:56.150Z,51.86
2019-03-04T07:30:55.947Z,53.76
2019-03-04T07:31:55.941Z,60.17
2019-03-04T07:32:55.931Z,52.83
2019-03-04T07:33:55.923Z,51.95
2019-03-04T07:34:55.935Z,52.46
2019-03-04T07:35:55.940Z,50.84
2019-03-04T07:36:55.942Z,49.69
2019-03-04T07:37:55.893Z,50.47
2019-03-04T07:38:55.892Z,54.06
2019-03-04T07:39:55.887Z,51.54
2019-03-04T07:40:55.877Z,50.32
2019-03-04T07:41:55.896Z,49.75
2019-03-04T07:42:55.864Z,50.09
2019-03-04T07:43:55.850Z,52.73
2019-03-04T07:44:55.852Z,54.19
2019-03-04T07:45:55.831Z,51.96
2019-03-04T07:46:55.850Z,54.06
2019-03-04T07:47:55.831Z,49.24
2019-03-04T07:48:55.828Z,49.21
2019-03-04T07:49:55.799Z,51.80
2019-03-04T07:52:41.961Z,52.14
2019-03-04T07:52:55.805Z,57.19
2019-03-04T07:54:00.628Z,50.41
2019-03-04T07:54:55.763Z,50.42
2019-03-04T07:55:55.766Z,49.37
2019-03-04T07:56:56.629Z,49.03
2019-03-04T07:57:55.743Z,51.34
2019-03-04T07:58:55.731Z,51.35
2019-03-04T08:00:27.626Z,54.38
2019-03-04T08:00:55.722Z,54.80
2019-03-04T08:01:55.727Z,50.72
2019-03-04T08:02:55.736Z,50.28
2019-03-04T08:03:55.771Z,50.40
2019-03-04T08:04:56.317Z,52.60
2019-03-04T08:05:57.717Z,53.99
2019-03-04T08:06:56.301Z,51.76
2019-03-04T08:07:55.962Z,51.37
2019-03-04T08:08:58.470Z,49.74
2019-03-04T08:09:55.781Z,55.31
2019-03-04T08:10:57.323Z,50.83
2019-03-04T08:11:58.112Z,50.40
2019-03-04T08:12:56.152Z,52.55
2019-03-04T08:13:56.179Z,52.48
2019-03-04T08:14:55.633Z,55.24
2019-03-04T08:15:55.627Z,53.29
2019-03-04T08:16:55.619Z,51.82
2019-03-04T08:17:56.138Z,54.08
2019-03-04T08:18:55.609Z,50.01
2019-03-04T08:19:55.614Z,50.66
2019-03-04T08:20:55.606Z,54.57
2019-03-04T08:21:55.584Z,52.53
2019-03-04T08:22:55.591Z,50.31
2019-03-04T08:23:55.554Z,51.27
2019-03-04T08:24:55.564Z,51.71
2019-03-04T08:25:55.564Z,50.84
2019-03-04T08:26:55.540Z,50.92
2019-03-04T08:27:55.565Z,54.49
2019-03-04T08:28:58.705Z,52.04
2019-03-04T08:29:56.572Z,54.90
2019-03-04T08:30:55.607Z,55.79
2019-03-04T08:31:56.208Z,52.56
2019-03-04T08:32:56.998Z,56.45
2019-03-04T08:33:55.530Z,57.51
2019-03-04T08:34:55.578Z,59.56
2019-03-04T08:35:55.534Z,57.15
2019-03-04T08:36:55.522Z,55.40
2019-03-04T08:37:55.519Z,59.50
2019-03-04T08:38:55.511Z,52.37
2019-03-04T08:39:55.475Z,54.43
2019-03-04T08:40:55.494Z,53.87
2019-03-04T08:41:55.472Z,52.05
2019-03-04T08:42:55.635Z,53.41
2019-03-04T08:43:56.077Z,55.79
2019-03-04T08:44:57.149Z,52.48
2019-03-04T08:45:55.451Z,54.48
2019-03-04T08:46:55.426Z,56.54
2019-03-04T08:47:55.536Z,58.72
2019-03-04T08:48:55.978Z,52.20
2019-03-04T08:49:55.569Z,49.57
2019-03-04T08:50:55.433Z,52.18
2019-03-04T08:51:55.504Z,51.40
2019-03-04T08:52:55.980Z,53.88
2019-03-04T08:53:56.187Z,56.94
2019-03-04T08:54:56.988Z,57.16
2019-03-04T08:55:56.189Z,59.15
2019-03-04T08:57:03.591Z,58.44
2019-03-04T08:57:57.452Z,54.35
2019-03-04T08:58:57.076Z,63.08
2019-03-04T08:59:55.352Z,68.35
2019-03-04T09:00:55.338Z,61.39
2019-03-04T09:01:55.346Z,56.75
2019-03-04T09:02:55.338Z,60.26
2019-03-04T09:03:55.345Z,57.47
2019-03-04T09:04:56.149Z,63.59
2019-03-04T09:05:55.315Z,52.30
2019-03-04T09:06:55.293Z,53.32
2019-03-04T09:07:55.298Z,51.58
2019-03-04T09:08:55.297Z,54.20
2019-03-04T09:09:55.297Z,59.00
2019-03-04T09:10:55.276Z,55.48
2019-03-04T09:11:56.152Z,53.80
2019-03-04T09:12:55.306Z,52.13
2019-03-04T09:13:56.149Z,51.41
2019-03-04T09:14:55.249Z,54.55
2019-03-04T09:15:55.254Z,54.00
2019-03-04T09:16:55.229Z,52.36
2019-03-04T09:17:55.240Z,52.85
2019-03-04T09:18:55.248Z,52.97
2019-03-04T09:19:55.230Z,55.31
2019-03-04T09:20:55.224Z,55.15
2019-03-04T09:21:55.202Z,54.00
2019-03-04T09:22:55.178Z,57.59
2019-03-04T09:23:55.199Z,68.90
2019-03-04T09:24:55.200Z,61.38
2019-03-04T09:25:55.172Z,56.00
2019-03-04T09:26:55.164Z,56.69
2019-03-04T09:27:55.177Z,57.44
2019-03-04T09:28:56.006Z,58.98
2019-03-04T09:29:55.126Z,59.31
2019-03-04T09:30:55.129Z,56.54
2019-03-04T09:31:55.152Z,58.60
2019-03-04T09:32:55.130Z,60.01
2019-03-04T09:33:55.115Z,58.05
2019-03-04T09:34:55.122Z,64.46
2019-03-04T09:35:55.136Z,61.31
2019-03-04T09:36:55.126Z,59.89
2019-03-04T09:37:55.091Z,65.12
2019-03-04T09:38:55.124Z,66.56
2019-03-04T09:39:55.083Z,58.46
2019-03-04T09:40:55.661Z,56.79
2019-03-04T09:41:55.067Z,60.31
2019-03-04T09:42:55.074Z,67.70
2019-03-04T09:43:55.074Z,62.68
2019-03-04T09:44:55.083Z,57.89
2019-03-04T09:45:55.084Z,58.88
2019-03-04T09:46:55.087Z,55.83
2019-03-04T09:50:34.095Z,66.30
2019-03-04T09:51:34.073Z,57.24
2019-03-04T09:52:34.067Z,60.44
2019-03-04T09:53:39.422Z,54.29
2019-03-04T09:54:36.045Z,60.91
2019-03-04T09:55:34.049Z,60.80
2019-03-04T09:56:34.069Z,56.78
2019-03-04T09:57:34.058Z,54.74
2019-03-04T09:58:34.031Z,55.40
2019-03-04T09:59:59.994Z,56.05
2019-03-04T10:00:34.046Z,56.41
2019-03-04T10:01:34.035Z,54.43
2019-03-04T10:02:34.019Z,52.31
2019-03-04T10:03:34.017Z,53.85
2019-03-04T10:04:34.028Z,53.71
2019-03-04T10:05:33.968Z,56.35
2019-03-04T10:06:33.998Z,55.95
2019-03-04T10:07:34.013Z,51.40
2019-03-04T10:08:33.977Z,53.39
2019-03-04T10:09:33.970Z,50.71
2019-03-04T10:10:33.961Z,50.02
2019-03-04T10:11:33.944Z,51.38
2019-03-04T10:12:33.955Z,53.70
2019-03-04T10:13:33.954Z,52.54
2019-03-04T10:14:33.965Z,59.10
2019-03-04T10:15:33.944Z,54.69
2019-03-04T10:16:33.925Z,54.27
2019-03-04T10:17:33.930Z,50.74
2019-03-04T10:18:33.902Z,52.89
2019-03-04T10:19:33.908Z,54.93
2019-03-04T10:20:33.897Z,53.61
2019-03-04T10:21:33.905Z,57.81
2019-03-04T10:22:33.886Z,54.05
2019-03-04T10:23:33.868Z,53.38
2019-03-04T10:24:41.702Z,50.41
2019-03-04T10:25:33.854Z,51.97
2019-03-04T10:26:33.895Z,52.96
2019-03-04T10:27:33.895Z,53.25
2019-03-04T10:28:33.868Z,53.96
2019-03-04T10:29:34.659Z,56.12
2019-03-04T10:30:33.871Z,52.79
2019-03-04T10:31:33.846Z,56.60
2019-03-04T10:32:33.844Z,58.93
2019-03-04T10:33:33.810Z,53.12
2019-03-04T10:34:33.827Z,52.68
2019-03-04T10:35:33.825Z,52.03
2019-03-04T10:36:33.797Z,54.83
2019-03-04T10:37:33.810Z,53.85
2019-03-04T10:38:33.782Z,56.06
2019-03-04T10:39:33.753Z,52.50
2019-03-04T10:40:34.570Z,52.85
2019-03-04T10:41:33.766Z,56.01
2019-03-04T10:42:33.690Z,55.94
2019-03-04T10:43:33.639Z,50.04
2019-03-04T10:44:37.860Z,50.91
2019-03-04T10:45:33.732Z,53.49
2019-03-04T10:46:33.735Z,55.12
2019-03-04T10:47:33.716Z,56.80
2019-03-04T10:48:33.729Z,52.36
2019-03-04T10:49:33.634Z,50.74
2019-03-04T10:50:33.674Z,54.91
2019-03-04T10:51:33.636Z,51.25
2019-03-04T10:52:33.657Z,53.34
2019-03-04T10:53:33.694Z,55.40
2019-03-04T10:54:34.185Z,51.23
2019-03-04T10:55:41.632Z,55.57
2019-03-04T10:56:35.671Z,53.63
2019-03-04T10:57:33.632Z,52.64
2019-03-04T10:58:33.653Z,53.05
2019-03-04T10:59:33.671Z,54.55
2019-03-04T11:00:33.638Z,50.59
2019-03-04T11:01:33.632Z,55.12
2019-03-04T11:02:33.610Z,56.65
2019-03-04T11:03:35.084Z,49.12
2019-03-04T11:04:34.074Z,55.23
2019-03-04T11:05:33.600Z,54.87
2019-03-04T11:06:33.587Z,51.68
2019-03-04T11:07:33.559Z,51.33
2019-03-04T11:08:33.599Z,49.65
2019-03-04T11:09:33.551Z,48.80
2019-03-04T11:10:33.577Z,48.16
2019-03-04T11:11:33.532Z,51.23
2019-03-04T11:12:33.542Z,50.52
2019-03-04T11:13:33.511Z,48.62
2019-03-04T11:14:33.497Z,49.96
2019-03-04T11:15:33.565Z,51.74
2019-03-04T11:16:33.544Z,52.74
2019-03-04T11:17:33.516Z,55.27
2019-03-04T11:18:33.504Z,52.60
2019-03-04T11:19:33.450Z,58.42
2019-03-04T11:20:33.466Z,54.55
2019-03-04T11:21:33.521Z,56.01
2019-03-04T11:22:33.524Z,58.77
2019-03-04T11:23:33.487Z,53.04
2019-03-04T11:24:34.235Z,52.24
2019-03-04T11:25:33.687Z,53.89
2019-03-04T11:26:33.456Z,57.36
2019-03-04T11:27:33.473Z,59.83
2019-03-04T11:28:33.437Z,57.41
2019-03-04T11:29:33.405Z,53.13
2019-03-04T11:30:33.442Z,52.55
2019-03-04T11:31:33.428Z,50.88
2019-03-04T11:32:33.422Z,49.85
2019-03-04T11:33:33.393Z,50.31
2019-03-04T11:34:34.088Z,50.09
2019-03-04T11:35:33.401Z,50.67
2019-03-04T11:36:33.434Z,55.86
2019-03-04T11:37:33.372Z,55.25
2019-03-04T11:38:33.376Z,49.98
2019-03-04T11:39:33.356Z,51.19
2019-03-04T11:40:33.360Z,50.31
2019-03-04T11:41:33.387Z,49.23
2019-03-04T11:42:33.304Z,49.40
2019-03-04T11:43:33.385Z,54.26
2019-03-04T11:44:33.360Z,58.54
2019-03-04T11:45:34.088Z,51.26
2019-03-04T11:46:33.367Z,49.42
2019-03-04T11:47:33.357Z,50.51
2019-03-04T11:48:33.338Z,49.74
2019-03-04T11:49:33.289Z,48.64
2019-03-04T11:50:33.269Z,48.96
2019-03-04T11:51:34.091Z,50.11
2019-03-04T11:52:33.274Z,54.69
2019-03-04T11:53:33.328Z,54.62
2019-03-04T11:54:33.239Z,53.64
2019-03-04T11:55:33.290Z,55.77
2019-03-04T11:56:33.280Z,50.51
2019-03-04T11:57:33.226Z,49.07
2019-03-04T11:58:33.267Z,53.19
2019-03-04T11:59:37.934Z,49.83
2019-03-04T12:00:34.082Z,55.26
2019-03-04T12:01:33.132Z,57.98
2019-03-04T12:02:38.973Z,58.30
2019-03-04T12:03:35.215Z,55.83
2019-03-04T12:04:33.257Z,49.81
2019-03-04T12:05:33.166Z,48.88
2019-03-04T12:06:33.154Z,52.21
2019-03-04T12:07:33.158Z,49.63
2019-03-04T12:08:33.180Z,49.89
2019-03-04T12:09:33.196Z,49.00
2019-03-04T12:10:33.199Z,48.07
2019-03-04T12:11:38.143Z,50.04
2019-03-04T12:12:35.063Z,49.97
2019-03-04T12:13:33.120Z,51.80
2019-03-04T12:14:33.048Z,54.27
2019-03-04T12:15:33.045Z,63.75
2019-03-04T12:16:33.169Z,58.40
2019-03-04T12:17:33.937Z,58.60
2019-03-04T12:18:35.018Z,63.05
2019-03-04T12:19:34.991Z,59.34
2019-03-04T12:20:33.045Z,58.95
2019-03-04T12:21:33.018Z,62.24
2019-03-04T12:22:32.984Z,60.92
2019-03-04T12:23:32.994Z,57.67
2019-03-04T12:24:32.989Z,58.33
2019-03-04T12:25:32.983Z,58.09
2019-03-04T12:26:32.986Z,58.15
2019-03-04T12:27:32.963Z,60.06
2019-03-04T12:28:32.945Z,61.53
2019-03-04T12:29:32.977Z,57.54
2019-03-04T12:30:32.929Z,53.81
2019-03-04T12:31:32.950Z,58.00
2019-03-04T12:32:32.915Z,56.48
2019-03-04T12:33:32.933Z,56.28
2019-03-04T12:34:32.935Z,53.89
2019-03-04T12:35:32.934Z,54.09
2019-03-04T12:36:32.934Z,54.64
2019-03-04T12:37:32.914Z,53.91
2019-03-04T12:38:32.912Z,56.28
2019-03-04T12:39:32.895Z,55.58
2019-03-04T12:40:32.891Z,54.17
2019-03-04T12:41:32.880Z,53.88
2019-03-04T12:42:32.894Z,54.21
2019-03-04T12:43:32.883Z,55.49
2019-03-04T12:44:32.861Z,55.43
2019-03-04T12:45:34.674Z,56.55
2019-03-04T12:46:33.852Z,54.27
2019-03-04T12:47:32.847Z,55.62
2019-03-04T12:48:32.837Z,53.73
2019-03-04T12:49:32.825Z,53.40
2019-03-04T12:50:32.811Z,53.80
2019-03-04T12:51:32.802Z,53.08
2019-03-04T12:52:32.810Z,54.00
2019-03-04T12:53:37.406Z,52.95
2019-03-04T12:54:33.784Z,52.72
2019-03-04T12:55:32.800Z,53.30
2019-03-04T12:56:32.774Z,52.36
2019-03-04T12:57:32.773Z,53.33
2019-03-04T12:58:32.758Z,57.49
2019-03-04T12:59:32.761Z,55.16
2019-03-04T13:00:32.866Z,60.38